Observation data for Spur on 11/09/2019      Previous  Date       Current Mesonet Observations  Soil Data  Daily Summary Page  Observations in Plain Language
KSP1 090600Z 27002KT 03/03 A3028 RMK A01 T00330025  RH  096%=      5-min Rain = 0
KSP1 090605Z 25002KT 03/03 A3028 RMK A01 T00330025  RH  096%=      5-min Rain = 0
KSP1 090610Z 25001KT 03/03 A3028 RMK A01 T00340027  RH  097%=      5-min Rain = 0
KSP1 090615Z 27001KT 03/03 A3028 RMK A01 T00340027  RH  097%=      5-min Rain = 0
KSP1 090620Z 26001KT 03/03 A3028 RMK A01 T00340027  RH  097%=      5-min Rain = 0
KSP1 090625Z 24002KT 03/03 A3028 RMK A01 T00330026  RH  097%=      5-min Rain = 0
KSP1 090630Z 25002KT 03/02 A3028 RMK A01 T00310024  RH  097%=      5-min Rain = 0
KSP1 090635Z 25002KT 03/03 A3028 RMK A01 T00340027  RH  097%=      5-min Rain = 0
KSP1 090640Z 23002KT 03/03 A3028 RMK A01 T00320025  RH  097%=      5-min Rain = 0
KSP1 090645Z 25002KT 03/03 A3028 RMK A01 T00320026  RH  097%=      5-min Rain = 0
KSP1 090650Z 25002KT 03/03 A3028 RMK A01 T00320026  RH  097%=      5-min Rain = 0
KSP1 090655Z 26004KT 03/03 A3028 RMK A01 T00340028  RH  098%=      5-min Rain = 0
KSP1 090700Z 28003KT 03/03 A3028 RMK A01 T00340028  RH  098%=      5-min Rain = 0
KSP1 090705Z 27003KT 04/03 A3028 RMK A01 T00350030  RH  098%=      5-min Rain = 0
KSP1 090710Z 27005KT 04/04 A3028 RMK A01 T00410036  RH  099%=      5-min Rain = 0
KSP1 090715Z 27003KT 04/04 A3027 RMK A01 T00410036  RH  098%=      5-min Rain = 0
KSP1 090720Z 27004KT 04/03 A3027 RMK A01 T00360030  RH  098%=      5-min Rain = 0
KSP1 090725Z 26005KT 04/04 A3027 RMK A01 T00400035  RH  098%=      5-min Rain = 0
KSP1 090730Z 26005KT 04/04 A3027 RMK A01 T00420037  RH  098%=      5-min Rain = 0
KSP1 090735Z 25006KT 04/04 A3027 RMK A01 T00440039  RH  098%=      5-min Rain = 0
KSP1 090740Z 25006KT 05/04 A3026 RMK A01 T00450040  RH  098%=      5-min Rain = 0
KSP1 090745Z 26005KT 05/04 A3026 RMK A01 T00450040  RH  098%=      5-min Rain = 0
KSP1 090750Z 26005KT 04/04 A3026 RMK A01 T00430037  RH  098%=      5-min Rain = 0
KSP1 090755Z 25005KT 04/04 A3026 RMK A01 T00430037  RH  098%=      5-min Rain = 0
KSP1 090800Z 25004KT 04/04 A3026 RMK A01 T00440039  RH  098%=      5-min Rain = 0
KSP1 090805Z 24004KT 05/04 A3025 RMK A01 T00450040  RH  098%=      5-min Rain = 0
KSP1 090810Z 24005KT 05/04 A3025 RMK A01 T00490044  RH  099%=      5-min Rain = 0
KSP1 090815Z 25005KT 05/05 A3025 RMK A01 T00500045  RH  098%=      5-min Rain = 0
KSP1 090820Z 26005KT 05/04 A3025 RMK A01 T00490043  RH  098%=      5-min Rain = 0
KSP1 090825Z 26005KT 05/04 A3025 RMK A01 T00460040  RH  098%=      5-min Rain = 0
KSP1 090830Z 26005KT 05/04 A3025 RMK A01 T00450039  RH  098%=      5-min Rain = 0
KSP1 090835Z 29003KT 04/04 A3025 RMK A01 T00420036  RH  098%=      5-min Rain = 0
KSP1 090840Z 31003KT 04/03 A3025 RMK A01 T00400034  RH  098%=      5-min Rain = 0
KSP1 090845Z 29003KT 04/04 A3025 RMK A01 T00420036  RH  098%=      5-min Rain = 0
KSP1 090850Z 27003KT 04/04 A3025 RMK A01 T00420036  RH  098%=      5-min Rain = 0
KSP1 090855Z 26004KT 04/03 A3025 RMK A01 T00400034  RH  098%=      5-min Rain = 0
KSP1 090900Z 26004KT 04/04 A3024 RMK A01 T00410035  RH  098%=      5-min Rain = 0
KSP1 090905Z 26004KT 04/04 A3024 RMK A01 T00420037  RH  098%=      5-min Rain = 0
KSP1 090910Z 25004KT 04/04 A3024 RMK A01 T00410035  RH  098%=      5-min Rain = 0
KSP1 090915Z 24004KT 04/04 A3024 RMK A01 T00400035  RH  098%=      5-min Rain = 0
KSP1 090920Z 23004KT 04/03 A3024 RMK A01 T00390033  RH  098%=      5-min Rain = 0
KSP1 090925Z 24003KT 03/03 A3023 RMK A01 T00330027  RH  097%=      5-min Rain = 0
KSP1 090930Z 24004KT 03/03 A3023 RMK A01 T00330028  RH  098%=      5-min Rain = 0
KSP1 090935Z 23005KT 04/03 A3023 RMK A01 T00360031  RH  098%=      5-min Rain = 0
KSP1 090940Z 24004KT 04/03 A3023 RMK A01 T00360031  RH  098%=      5-min Rain = 0
KSP1 090945Z 25004KT 04/03 A3023 RMK A01 T00360031  RH  098%=      5-min Rain = 0
KSP1 090950Z 26004KT 03/03 A3023 RMK A01 T00340029  RH  098%=      5-min Rain = 0
KSP1 090955Z 26005KT 03/03 A3023 RMK A01 T00340029  RH  098%=      5-min Rain = 0
KSP1 091000Z 26004KT 03/03 A3023 RMK A01 T00340030  RH  098%=      5-min Rain = 0
KSP1 091005Z 26003KT 03/03 A3023 RMK A01 T00340030  RH  098%=      5-min Rain = 0
KSP1 091010Z 26003KT 03/03 A3023 RMK A01 T00340030  RH  098%=      5-min Rain = 0
KSP1 091015Z 25005KT 03/03 A3022 RMK A01 T00330029  RH  098%=      5-min Rain = 0
KSP1 091020Z 25006KT 04/03 A3022 RMK A01 T00350030  RH  099%=      5-min Rain = 0
KSP1 091025Z 24005KT 04/03 A3023 RMK A01 T00370032  RH  099%=      5-min Rain = 0
KSP1 091030Z 23005KT 04/04 A3023 RMK A01 T00390035  RH  099%=      5-min Rain = 0
KSP1 091035Z 23006KT 04/03 A3022 RMK A01 T00380034  RH  098%=      5-min Rain = 0
KSP1 091040Z 23005KT 04/03 A3022 RMK A01 T00370032  RH  098%=      5-min Rain = 0
KSP1 091045Z 23005KT 04/03 A3022 RMK A01 T00380034  RH  099%=      5-min Rain = 0
KSP1 091050Z 24004KT 04/03 A3023 RMK A01 T00380034  RH  099%=      5-min Rain = 0
KSP1 091055Z 25003KT 04/03 A3022 RMK A01 T00390034  RH  099%=      5-min Rain = 0
KSP1 091100Z 25003KT 04/04 A3022 RMK A01 T00390035  RH  099%=      5-min Rain = 0
KSP1 091105Z 25004KT 04/04 A3022 RMK A01 T00400036  RH  099%=      5-min Rain = 0
KSP1 091110Z 26005KT 04/04 A3022 RMK A01 T00400036  RH  099%=      5-min Rain = 0
KSP1 091115Z 25004KT 04/04 A3022 RMK A01 T00400035  RH  099%=      5-min Rain = 0
KSP1 091120Z 25005KT 04/04 A3022 RMK A01 T00400035  RH  098%=      5-min Rain = 0
KSP1 091125Z 25004KT 04/03 A3022 RMK A01 T00390034  RH  098%=      5-min Rain = 0
KSP1 091130Z 24003KT 04/04 A3022 RMK A01 T00400035  RH  098%=      5-min Rain = 0
KSP1 091135Z 24004KT 04/03 A3022 RMK A01 T00390033  RH  098%=      5-min Rain = 0
KSP1 091140Z 24004KT 04/03 A3022 RMK A01 T00400034  RH  098%=      5-min Rain = 0
KSP1 091145Z 24005KT 04/04 A3022 RMK A01 T00400035  RH  098%=      5-min Rain = 0
KSP1 091150Z 24005KT 04/04 A3022 RMK A01 T00420037  RH  098%=      5-min Rain = 0
KSP1 091155Z 24004KT 04/04 A3022 RMK A01 T00420037  RH  098%=      5-min Rain = 0
KSP1 091200Z 23005KT 04/04 A3022 RMK A01 T00400035  RH  098%=      5-min Rain = 0
KSP1 091205Z 24005KT 04/04 A3022 RMK A01 T00400035  RH  098%=      5-min Rain = 0
KSP1 091210Z 25004KT 04/04 A3022 RMK A01 T00410036  RH  098%=      5-min Rain = 0
KSP1 091215Z 25004KT 04/04 A3022 RMK A01 T00440038  RH  098%=      5-min Rain = 0
KSP1 091220Z 26003KT 04/04 A3022 RMK A01 T00440038  RH  098%=      5-min Rain = 0
KSP1 091225Z 27002KT 04/04 A3022 RMK A01 T00410035  RH  098%=      5-min Rain = 0
KSP1 091230Z 26002KT 04/03 A3022 RMK A01 T00400034  RH  098%=      5-min Rain = 0
KSP1 091235Z 24004KT 04/03 A3022 RMK A01 T00400034  RH  098%=      5-min Rain = 0
KSP1 091240Z 23005KT 04/03 A3022 RMK A01 T00370031  RH  097%=      5-min Rain = 0
KSP1 091245Z 23004KT 04/03 A3022 RMK A01 T00370031  RH  098%=      5-min Rain = 0
KSP1 091250Z 23005KT 04/03 A3022 RMK A01 T00380033  RH  098%=      5-min Rain = 0
KSP1 091255Z 23004KT 04/03 A3022 RMK A01 T00380033  RH  098%=      5-min Rain = 0
KSP1 091300Z 22004KT 04/03 A3022 RMK A01 T00370031  RH  098%=      5-min Rain = 0
KSP1 091305Z 22001KT 03/03 A3022 RMK A01 T00340029  RH  098%=      5-min Rain = 0
KSP1 091310Z 27003KT 04/03 A3022 RMK A01 T00350029  RH  098%=      5-min Rain = 0
KSP1 091315Z 27005KT 04/04 A3022 RMK A01 T00400035  RH  099%=      5-min Rain = 0
KSP1 091320Z 27004KT 04/04 A3022 RMK A01 T00440039  RH  099%=      5-min Rain = 0
KSP1 091325Z 27005KT 05/04 A3022 RMK A01 T00460041  RH  098%=      5-min Rain = 0
KSP1 091330Z 26005KT 05/04 A3023 RMK A01 T00470041  RH  098%=      5-min Rain = 0
KSP1 091335Z 27003KT 05/04 A3023 RMK A01 T00460040  RH  098%=      5-min Rain = 0
KSP1 091340Z 28003KT 05/04 A3023 RMK A01 T00460039  RH  097%=      5-min Rain = 0
KSP1 091345Z 27005KT 05/04 A3023 RMK A01 T00460039  RH  097%=      5-min Rain = 0
KSP1 091350Z 27005KT 05/04 A3023 RMK A01 T00470039  RH  097%=      5-min Rain = 0
KSP1 091355Z 26005KT 05/04 A3023 RMK A01 T00490041  RH  096%=      5-min Rain = 0
KSP1 091400Z 26005KT 05/04 A3023 RMK A01 T00520043  RH  096%=      5-min Rain = 0
KSP1 091405Z 26006KT 06/05 A3024 RMK A01 T00550046  RH  096%=      5-min Rain = 0
KSP1 091410Z 26006KT 06/05 A3024 RMK A01 T00580048  RH  095%=      5-min Rain = 0
KSP1 091415Z 26005KT 06/05 A3024 RMK A01 T00610050  RH  095%=      5-min Rain = 0
KSP1 091420Z 26005KT 06/05 A3024 RMK A01 T00640052  RH  094%=      5-min Rain = 0
KSP1 091425Z 25005KT 07/06 A3024 RMK A01 T00670055  RH  094%=      5-min Rain = 0
KSP1 091430Z 26004KT 07/06 A3024 RMK A01 T00700056  RH  093%=      5-min Rain = 0
KSP1 091435Z 25005KT 07/06 A3024 RMK A01 T00730059  RH  093%=      5-min Rain = 0
KSP1 091440Z 26005KT 08/06 A3024 RMK A01 T00760060  RH  092%=      5-min Rain = 0
KSP1 091445Z 26005KT 08/06 A3024 RMK A01 T00780062  RH  091%=      5-min Rain = 0
KSP1 091450Z 26006KT 08/06 A3024 RMK A01 T00800062  RH  090%=      5-min Rain = 0
KSP1 091455Z 27005KT 08/06 A3025 RMK A01 T00830064  RH  090%=      5-min Rain = 0
KSP1 091500Z 26005KT 09/07 A3025 RMK A01 T00850065  RH  089%=      5-min Rain = 0
KSP1 091505Z 25006KT 09/07 A3025 RMK A01 T00880066  RH  088%=      5-min Rain = 0
KSP1 091510Z 26005KT 09/07 A3025 RMK A01 T00900068  RH  088%=      5-min Rain = 0
KSP1 091515Z 26005KT 09/07 A3025 RMK A01 T00940071  RH  088%=      5-min Rain = 0
KSP1 091520Z 26005KT 10/07 A3025 RMK A01 T00980072  RH  086%=      5-min Rain = 0
KSP1 091525Z 25006KT 10/07 A3025 RMK A01 T01000073  RH  085%=      5-min Rain = 0
KSP1 091530Z 25007KT 10/07 A3024 RMK A01 T01030073  RH  084%=      5-min Rain = 0
KSP1 091535Z 26006KT 11/08 A3024 RMK A01 T01060075  RH  083%=      5-min Rain = 0
KSP1 091540Z 27005KT 11/08 A3024 RMK A01 T01100078  RH  083%=      5-min Rain = 0
KSP1 091545Z 27005KT 11/08 A3024 RMK A01 T01140080  RH  082%=      5-min Rain = 0
KSP1 091550Z 26005KT 12/08 A3024 RMK A01 T01190083  RH  081%=      5-min Rain = 0
KSP1 091555Z 27006KT 12/08 A3024 RMK A01 T01220082  RH  079%=      5-min Rain = 0
KSP1 091600Z 27005KT 13/08 A3024 RMK A01 T01250082  RH  077%=      5-min Rain = 0
KSP1 091605Z 25006KT 13/08 A3024 RMK A01 T01280084  RH  077%=      5-min Rain = 0
KSP1 091610Z 27006KT 13/08 A3024 RMK A01 T01300083  RH  075%=      5-min Rain = 0
KSP1 091615Z 28005KT 14/09 A3024 RMK A01 T01350085  RH  074%=      5-min Rain = 0
KSP1 091620Z 27005KT 14/09 A3024 RMK A01 T01370086  RH  074%=      5-min Rain = 0
KSP1 091625Z 27005KT 14/09 A3024 RMK A01 T01390085  RH  072%=      5-min Rain = 0
KSP1 091630Z 25004KT 14/09 A3024 RMK A01 T01430088  RH  072%=      5-min Rain = 0
KSP1 091635Z 25005KT 15/09 A3024 RMK A01 T01450087  RH  070%=      5-min Rain = 0
KSP1 091640Z 26005KT 15/09 A3024 RMK A01 T01460086  RH  069%=      5-min Rain = 0
KSP1 091645Z 24006KT 15/09 A3023 RMK A01 T01510088  RH  068%=      5-min Rain = 0
KSP1 091650Z 24005KT 16/09 A3023 RMK A01 T01550088  RH  066%=      5-min Rain = 0
KSP1 091655Z 25006KT 16/09 A3023 RMK A01 T01580086  RH  064%=      5-min Rain = 0
KSP1 091700Z 25006KT 16/09 A3023 RMK A01 T01610088  RH  064%=      5-min Rain = 0
KSP1 091705Z 25007KT 17/09 A3023 RMK A01 T01660087  RH  061%=      5-min Rain = 0
KSP1 091710Z 24006G11KT 17/09 A3023 RMK A01 T01680089  RH  061%=      5-min Rain = 0
KSP1 091715Z 24007KT 17/09 A3023 RMK A01 T01700088  RH  060%=      5-min Rain = 0
KSP1 091720Z 24008KT 17/09 A3023 RMK A01 T01720088  RH  059%=      5-min Rain = 0
KSP1 091725Z 24007KT 17/09 A3022 RMK A01 T01740088  RH  059%=      5-min Rain = 0
KSP1 091730Z 24008G14KT 18/09 A3022 RMK A01 T01760088  RH  058%=      5-min Rain = 0
KSP1 091735Z 24008KT 18/09 A3022 RMK A01 T01780088  RH  057%=      5-min Rain = 0
KSP1 091740Z 23007KT 18/09 A3022 RMK A01 T01800091  RH  058%=      5-min Rain = 0
KSP1 091745Z 24008G13KT 18/09 A3022 RMK A01 T01780088  RH  057%=      5-min Rain = 0
KSP1 091750Z 23008KT 18/09 A3022 RMK A01 T01810091  RH  057%=      5-min Rain = 0
KSP1 091755Z 24007G12KT 18/09 A3021 RMK A01 T01840090  RH  056%=      5-min Rain = 0
KSP1 091800Z 23009KT 19/09 A3021 RMK A01 T01870091  RH  055%=      5-min Rain = 0
KSP1 091805Z 24007G12KT 19/09 A3021 RMK A01 T01890087  RH  053%=      5-min Rain = 0
KSP1 091810Z 26008KT 19/09 A302 RMK A01 T01910086  RH  052%=      5-min Rain = 0
KSP1 091815Z 24006KT 19/09 A3019 RMK A01 T01940089  RH  052%=      5-min Rain = 0
KSP1 091820Z 24007G12KT 20/09 A3019 RMK A01 T01970089  RH  051%=      5-min Rain = 0
KSP1 091825Z 24008G13KT 20/09 A3019 RMK A01 T01970090  RH  052%=      5-min Rain = 0
KSP1 091830Z 24009KT 20/09 A3018 RMK A01 T01990087  RH  050%=      5-min Rain = 0
KSP1 091835Z 24009KT 20/09 A3018 RMK A01 T02000086  RH  049%=      5-min Rain = 0
KSP1 091840Z 25009KT 20/08 A3017 RMK A01 T02010081  RH  047%=      5-min Rain = 0
KSP1 091845Z 25008G13KT 20/08 A3017 RMK A01 T02020083  RH  047%=      5-min Rain = 0
KSP1 091850Z 24008KT 21/09 A3017 RMK A01 T02060087  RH  048%=      5-min Rain = 0
KSP1 091855Z 23010KT 21/09 A3016 RMK A01 T02060087  RH  048%=      5-min Rain = 0
KSP1 091900Z 24008G13KT 21/09 A3016 RMK A01 T02060086  RH  048%=      5-min Rain = 0
KSP1 091905Z 24008KT 21/08 A3016 RMK A01 T02080084  RH  046%=      5-min Rain = 0
KSP1 091910Z 24008G15KT 21/09 A3016 RMK A01 T02090085  RH  046%=      5-min Rain = 0
KSP1 091915Z 25008G13KT 21/08 A3016 RMK A01 T02090082  RH  045%=      5-min Rain = 0
KSP1 091920Z 24008G13KT 21/09 A3016 RMK A01 T02110087  RH  046%=      5-min Rain = 0
KSP1 091925Z 25008G13KT 21/08 A3015 RMK A01 T02140081  RH  044%=      5-min Rain = 0
KSP1 091930Z 25009G15KT 21/08 A3015 RMK A01 T02130080  RH  043%=      5-min Rain = 0
KSP1 091935Z 24009KT 22/08 A3015 RMK A01 T02160080  RH  043%=      5-min Rain = 0
KSP1 091940Z 23009KT 22/08 A3015 RMK A01 T02160081  RH  043%=      5-min Rain = 0
KSP1 091945Z 24008G13KT 22/08 A3014 RMK A01 T02170079  RH  042%=      5-min Rain = 0
KSP1 091950Z 23009KT 22/08 A3014 RMK A01 T02190080  RH  042%=      5-min Rain = 0
KSP1 091955Z 23009KT 22/08 A3014 RMK A01 T02200081  RH  042%=      5-min Rain = 0
KSP1 092000Z 24008KT 22/08 A3013 RMK A01 T02220075  RH  040%=      5-min Rain = 0
KSP1 092005Z 24008KT 22/08 A3013 RMK A01 T02240077  RH  040%=      5-min Rain = 0
KSP1 092010Z 25007KT 23/07 A3013 RMK A01 T02250072  RH  038%=      5-min Rain = 0
KSP1 092015Z 24009KT 23/07 A3013 RMK A01 T02250074  RH  039%=      5-min Rain = 0
KSP1 092020Z 24009KT 23/07 A3013 RMK A01 T02270073  RH  038%=      5-min Rain = 0
KSP1 092025Z 24007KT 23/08 A3012 RMK A01 T02280075  RH  038%=      5-min Rain = 0
KSP1 092030Z 22007KT 23/08 A3012 RMK A01 T02280081  RH  040%=      5-min Rain = 0
KSP1 092035Z 24008G13KT 23/08 A3012 RMK A01 T02310079  RH  039%=      5-min Rain = 0
KSP1 092040Z 24007KT 23/08 A3012 RMK A01 T02300078  RH  039%=      5-min Rain = 0
KSP1 092045Z 25006G11KT 23/08 A3012 RMK A01 T02310075  RH  038%=      5-min Rain = 0
KSP1 092050Z 23009G14KT 23/08 A3012 RMK A01 T02300076  RH  038%=      5-min Rain = 0
KSP1 092055Z 24008G13KT 23/07 A3011 RMK A01 T02300072  RH  037%=      5-min Rain = 0
KSP1 092100Z 22008KT 23/08 A3011 RMK A01 T02300075  RH  038%=      5-min Rain = 0
KSP1 092105Z 23008KT 23/08 A3011 RMK A01 T02320077  RH  038%=      5-min Rain = 0
KSP1 092110Z 21008KT 23/07 A3011 RMK A01 T02320073  RH  037%=      5-min Rain = 0
KSP1 092115Z 23006KT 23/08 A3011 RMK A01 T02340075  RH  037%=      5-min Rain = 0
KSP1 092120Z 22007KT 23/08 A3011 RMK A01 T02340076  RH  037%=      5-min Rain = 0
KSP1 092125Z 23007G14KT 23/07 A301 RMK A01 T02320073  RH  037%=      5-min Rain = 0
KSP1 092130Z 22007KT 23/07 A301 RMK A01 T02310072  RH  037%=      5-min Rain = 0
KSP1 092135Z 24006KT 23/07 A301 RMK A01 T02320068  RH  036%=      5-min Rain = 0
KSP1 092140Z 25005KT 23/07 A301 RMK A01 T02320067  RH  035%=      5-min Rain = 0
KSP1 092145Z 23007KT 23/07 A301 RMK A01 T02330071  RH  036%=      5-min Rain = 0
KSP1 092150Z 24006KT 23/07 A301 RMK A01 T02320065  RH  035%=      5-min Rain = 0
KSP1 092155Z 22007KT 23/07 A301 RMK A01 T02320071  RH  036%=      5-min Rain = 0
KSP1 092200Z 23006KT 23/08 A301 RMK A01 T02310075  RH  038%=      5-min Rain = 0
KSP1 092205Z 23006KT 23/07 A301 RMK A01 T02310068  RH  036%=      5-min Rain = 0
KSP1 092210Z 21006KT 23/07 A3009 RMK A01 T02320074  RH  037%=      5-min Rain = 0
KSP1 092215Z 23006KT 23/07 A3009 RMK A01 T02300069  RH  036%=      5-min Rain = 0
KSP1 092220Z 24006KT 23/07 A3009 RMK A01 T02310068  RH  036%=      5-min Rain = 0
KSP1 092225Z 22007KT 23/07 A3009 RMK A01 T02300069  RH  036%=      5-min Rain = 0
KSP1 092230Z 23007KT 23/07 A3009 RMK A01 T02280070  RH  037%=      5-min Rain = 0
KSP1 092235Z 21007KT 23/07 A3009 RMK A01 T02270069  RH  037%=      5-min Rain = 0
KSP1 092240Z 21006KT 23/07 A3009 RMK A01 T02260069  RH  037%=      5-min Rain = 0
KSP1 092245Z 22006KT 23/07 A3009 RMK A01 T02250071  RH  038%=      5-min Rain = 0
KSP1 092250Z 22006KT 22/08 A3009 RMK A01 T02230075  RH  039%=      5-min Rain = 0
KSP1 092255Z 21006KT 22/07 A3009 RMK A01 T02210074  RH  040%=      5-min Rain = 0
KSP1 092300Z 21006KT 22/07 A3009 RMK A01 T02190073  RH  040%=      5-min Rain = 0
KSP1 092305Z 21005KT 22/07 A3009 RMK A01 T02180068  RH  039%=      5-min Rain = 0
KSP1 092310Z 21005KT 22/07 A3009 RMK A01 T02170068  RH  039%=      5-min Rain = 0
KSP1 092315Z 21006KT 21/07 A3009 RMK A01 T02120071  RH  041%=      5-min Rain = 0
KSP1 092320Z 21005KT 21/07 A3009 RMK A01 T02050072  RH  043%=      5-min Rain = 0
KSP1 092325Z 21005KT 20/07 A3009 RMK A01 T01980073  RH  045%=      5-min Rain = 0
KSP1 092330Z 21005KT 19/07 A3009 RMK A01 T01940072  RH  046%=      5-min Rain = 0
KSP1 092335Z 21004KT 19/07 A3009 RMK A01 T01890072  RH  048%=      5-min Rain = 0
KSP1 092340Z 21004KT 19/07 A3009 RMK A01 T01860070  RH  048%=      5-min Rain = 0
KSP1 092345Z 20004KT 18/07 A3009 RMK A01 T01820069  RH  049%=      5-min Rain = 0
KSP1 092350Z 20004KT 18/07 A3009 RMK A01 T01780069  RH  050%=      5-min Rain = 0
KSP1 092355Z 20004KT 17/07 A3009 RMK A01 T01710068  RH  052%=      5-min Rain = 0
KSP1 100000Z 20005KT 17/07 A3009 RMK A01 T01680069  RH  053%=      5-min Rain = 0
KSP1 100005Z 20004KT 16/07 A3009 RMK A01 T01640069  RH  055%=      5-min Rain = 0
KSP1 100010Z 20004KT 16/07 A3009 RMK A01 T01600070  RH  056%=      5-min Rain = 0
KSP1 100015Z 20004KT 16/07 A3009 RMK A01 T01570070  RH  058%=      5-min Rain = 0
KSP1 100020Z 20003KT 16/07 A3009 RMK A01 T01560071  RH  058%=      5-min Rain = 0
KSP1 100025Z 20004KT 15/07 A3009 RMK A01 T01530070  RH  059%=      5-min Rain = 0
KSP1 100030Z 20004KT 15/07 A3009 RMK A01 T01500071  RH  061%=      5-min Rain = 0
KSP1 100035Z 20004KT 15/07 A3009 RMK A01 T01480071  RH  062%=      5-min Rain = 0
KSP1 100040Z 21005KT 14/07 A3009 RMK A01 T01440072  RH  063%=      5-min Rain = 0
KSP1 100045Z 21005KT 14/07 A3009 RMK A01 T01390074  RH  066%=      5-min Rain = 0
KSP1 100050Z 21004KT 14/08 A3009 RMK A01 T01370075  RH  068%=      5-min Rain = 0
KSP1 100055Z 21005KT 14/08 A3009 RMK A01 T01370076  RH  068%=      5-min Rain = 0
KSP1 100100Z 21005KT 14/08 A3009 RMK A01 T01370077  RH  069%=      5-min Rain = 0
KSP1 100105Z 22004KT 14/08 A301 RMK A01 T01350075  RH  069%=      5-min Rain = 0
KSP1 100110Z 22004KT 13/07 A301 RMK A01 T01290074  RH  071%=      5-min Rain = 0
KSP1 100115Z 23004KT 13/08 A301 RMK A01 T01260075  RH  073%=      5-min Rain = 0
KSP1 100120Z 24004KT 12/07 A301 RMK A01 T01230073  RH  073%=      5-min Rain = 0
KSP1 100125Z 23004KT 12/08 A301 RMK A01 T01220075  RH  075%=      5-min Rain = 0
KSP1 100130Z 23004KT 12/08 A301 RMK A01 T01240076  RH  075%=      5-min Rain = 0
KSP1 100135Z 22004KT 12/08 A301 RMK A01 T01220077  RH  076%=      5-min Rain = 0
KSP1 100140Z 23004KT 12/08 A301 RMK A01 T01190078  RH  078%=      5-min Rain = 0
KSP1 100145Z 23005KT 12/08 A301 RMK A01 T01200077  RH  077%=      5-min Rain = 0
KSP1 100150Z 23004KT 12/08 A301 RMK A01 T01210077  RH  077%=      5-min Rain = 0
KSP1 100155Z 23004KT 12/08 A301 RMK A01 T01200077  RH  077%=      5-min Rain = 0
KSP1 100200Z 23005KT 12/08 A301 RMK A01 T01180077  RH  078%=      5-min Rain = 0
KSP1 100205Z 23005KT 12/08 A301 RMK A01 T01160078  RH  080%=      5-min Rain = 0
KSP1 100210Z 22004KT 12/08 A301 RMK A01 T01160078  RH  080%=      5-min Rain = 0
KSP1 100215Z 22004KT 12/08 A301 RMK A01 T01160077  RH  079%=      5-min Rain = 0
KSP1 100220Z 22004KT 11/08 A301 RMK A01 T01140076  RH  080%=      5-min Rain = 0
KSP1 100225Z 22005KT 11/08 A301 RMK A01 T01120077  RH  081%=      5-min Rain = 0
KSP1 100230Z 22005KT 11/08 A301 RMK A01 T01130079  RH  082%=      5-min Rain = 0
KSP1 100235Z 22005KT 11/08 A301 RMK A01 T01140080  RH  082%=      5-min Rain = 0
KSP1 100240Z 22005KT 12/08 A301 RMK A01 T01150080  RH  082%=      5-min Rain = 0
KSP1 100245Z 22005KT 11/08 A301 RMK A01 T01140080  RH  082%=      5-min Rain = 0
KSP1 100250Z 22005KT 11/08 A3009 RMK A01 T01130079  RH  082%=      5-min Rain = 0
KSP1 100255Z 23005KT 11/08 A3009 RMK A01 T01130080  RH  082%=      5-min Rain = 0
KSP1 100300Z 23003KT 11/08 A301 RMK A01 T01120078  RH  082%=      5-min Rain = 0
KSP1 100305Z 23004KT 11/08 A301 RMK A01 T01100078  RH  083%=      5-min Rain = 0
KSP1 100310Z 23005KT 11/08 A3009 RMK A01 T01080076  RH  083%=      5-min Rain = 0
KSP1 100315Z 23004KT 11/08 A3009 RMK A01 T01060076  RH  083%=      5-min Rain = 0
KSP1 100320Z 23004KT 11/08 A3009 RMK A01 T01050075  RH  084%=      5-min Rain = 0
KSP1 100325Z 23004KT 10/08 A3009 RMK A01 T01030075  RH  085%=      5-min Rain = 0
KSP1 100330Z 23004KT 10/08 A3009 RMK A01 T01040076  RH  085%=      5-min Rain = 0
KSP1 100335Z 23004KT 11/08 A301 RMK A01 T01060077  RH  084%=      5-min Rain = 0
KSP1 100340Z 24004KT 11/08 A3009 RMK A01 T01080077  RH  083%=      5-min Rain = 0
KSP1 100345Z 24004KT 11/08 A3009 RMK A01 T01090077  RH  083%=      5-min Rain = 0
KSP1 100350Z 23004KT 11/08 A3009 RMK A01 T01090077  RH  083%=      5-min Rain = 0
KSP1 100355Z 23004KT 11/08 A3009 RMK A01 T01080077  RH  084%=      5-min Rain = 0
KSP1 100400Z 23004KT 11/08 A3009 RMK A01 T01090078  RH  084%=      5-min Rain = 0
KSP1 100405Z 22005KT 11/08 A3009 RMK A01 T01080077  RH  084%=      5-min Rain = 0
KSP1 100410Z 23003KT 11/08 A3009 RMK A01 T01060077  RH  085%=      5-min Rain = 0
KSP1 100415Z 25002KT 10/08 A3009 RMK A01 T01040075  RH  084%=      5-min Rain = 0
KSP1 100420Z 25003KT 10/07 A3009 RMK A01 T00980071  RH  086%=      5-min Rain = 0
KSP1 100425Z 24003KT 09/07 A3009 RMK A01 T00940072  RH  088%=      5-min Rain = 0
KSP1 100430Z 25003KT 10/08 A3009 RMK A01 T00970076  RH  089%=      5-min Rain = 0
KSP1 100435Z 25003KT 10/07 A3009 RMK A01 T00970074  RH  087%=      5-min Rain = 0
KSP1 100440Z 26003KT 09/07 A3009 RMK A01 T00930070  RH  088%=      5-min Rain = 0
KSP1 100445Z 26002KT 09/07 A3009 RMK A01 T00920073  RH  090%=      5-min Rain = 0
KSP1 100450Z 27002KT 09/07 A3009 RMK A01 T00930073  RH  090%=      5-min Rain = 0
KSP1 100455Z 26003KT 09/07 A3009 RMK A01 T00920072  RH  090%=      5-min Rain = 0
KSP1 100500Z 26002KT 09/07 A3009 RMK A01 T00900070  RH  089%=      5-min Rain = 0
KSP1 100505Z 36001KT 09/07 A3009 RMK A01 T00860067  RH  091%=      5-min Rain = 0
KSP1 100510Z 02002KT 08/07 A3009 RMK A01 T00830067  RH  092%=      5-min Rain = 0
KSP1 100515Z 35002KT 09/07 A3008 RMK A01 T00850070  RH  093%=      5-min Rain = 0
KSP1 100520Z 32001KT 09/07 A3008 RMK A01 T00850070  RH  093%=      5-min Rain = 0
KSP1 100525Z 32002KT 09/07 A3008 RMK A01 T00860070  RH  093%=      5-min Rain = 0
KSP1 100530Z 31003KT 09/07 A3008 RMK A01 T00850070  RH  092%=      5-min Rain = 0
KSP1 100535Z 30003KT 09/07 A3008 RMK A01 T00860071  RH  093%=      5-min Rain = 0
KSP1 100540Z 30003KT 09/07 A3008 RMK A01 T00850068  RH  092%=      5-min Rain = 0
KSP1 100545Z 31004KT 08/06 A3008 RMK A01 T00780060  RH  091%=      5-min Rain = 0
KSP1 100550Z 33003KT 08/06 A3008 RMK A01 T00760062  RH  093%=      5-min Rain = 0
KSP1 100555Z 33003KT 08/06 A3008 RMK A01 T00760062  RH  093%=      5-min Rain = 0

Page generated in 0.0185 seconds.